Arcadia, MI (49613)

4:37 AM EST on February 13, 2016 (GMT -0500)
Benzie | | Change Station
CLOSE
Current Station
Personal Weather Station
Location: Benzonia, MI
Elevation: 811 ft
Nearby Weather Stations
Active Advisory: Winter Weather Advisory

Elev 811 ft 44.54 °N, 86.11 °W | Updated 7 minutes ago

Overcast
Overcast
10.0 °F
Feels Like 10 °F
N
0.0
Wind Variable Wind from NNW
Gusts 0.0 mph

Today
High -- | Low -- °F
--% Chance of Precip.
Yesterday
High -- | Low -- °F
Precip. -- in
Pressure 30.35 in
Visibility 4.0 miles
Clouds Scattered Clouds 2800 ft
Mostly Cloudy 3400 ft
Overcast 4000 ft
Windchill 10 °F
Dew Point 3 °F
Humidity 72%
Rainfall 0.00 in
Snow Depth Not available.
7:48 AM 6:10 PM
Waxing Crescent, 29% visible
METAR KFKS 130911Z AUTO 33014G22KT 4SM HZ SCT028 BKN034 OVC040 M12/M17 A3035 RMK AO2 T11201173
Pressure 30.35 in
Visibility 4.0 miles
Clouds Scattered Clouds 2800 ft
Mostly Cloudy 3400 ft
Overcast 4000 ft
Windchill 10 °F
Dew Point 3 °F
Humidity 72%
Rainfall 0.00 in
Snow Depth Not available.
7:48 AM 6:10 PM
Waxing Crescent, 29% visible
METAR KFKS 130911Z AUTO 33014G22KT 4SM HZ SCT028 BKN034 OVC040 M12/M17 A3035 RMK AO2 T11201173

10-Day Weather Forecast

Almanac

Astronomy

Feb. 13, 2016 Rise Set
Actual Time
Civil Twilight
Nautical Twilight
Astronomical Twilight
Moon
Length of Visible Light
Length of Day
Tomorrow will be .
, % of the Moon is Illuminated

Today's Extremes

State Highs State Lows

Community

WunderPhotos

Upload Photos

1,892,536 photos uploaded!

WunderBlog® & News

Nearby

Air Quality

  Air Quality AQ Index Pollutant
Not available.

Snow Depth

Station Depth Elevation

Earthquake Activity

City Distance Mag. Time & Date
Minimum magnitude displayed is 2.5.

Coastal Water Temperatures

Place Temperature

Stations

Nearby Weather Stations

Station Location Temp. Windchill Dew Point Humidity Wind Precip. Elev Updated Type
                   

Watches & Warnings

Winter Weather Advisory
Issued: 3:53 AM EST Feb. 13, 2016 – National Weather Service

... Winter Weather Advisory remains in effect until noon EST
today...

* lake effect snow showers will continue today. The better
snowfall will be this morning.

* Total new snow accumulations will be from 1 to 4 inches. The
greatest amounts across parts of Leelanau... Antrim... Grand
Traverse and Kalkaska counties.

* Gusty northwest winds will produce areas of blowing and
drifting snow.

* Look for periods of poor visibility and slippery Road
conditions.